Terminal Aerodrome Forecast
Issued by NWS Corpus Christi, TX

Home | Current Version | Previous Version | Text Only | Print | Product List | Glossary On
Versions: 1 2 3 4 5 6 7 8 9 10 11 12 13 14 15
000
FTUS44 KCRP 181100
TAFCRP
TAF
KCRP 181132Z 1812/1912 16008KT P6SM FEW015
     FM181600 17010KT P6SM VCSH FEW025
     FM182000 14012KT P6SM VCTS SCT045CB
     FM190100 13008KT P6SM SCT025=

USA.gov is the U.S. government's official web portal to all federal, state and local government web resources and services.